Terminal Aerodrome Forecast
Issued by NWS Topeka, KS

Home | Current Version | Previous Version | Text Only | Print | Product List | Glossary On
Versions: 1 2 3 4 5 6 7 8 9 10 11 12 13 14 15 16 17 18 19 20 21 22 23 24 25 26 27 28
000
FTUS43 KTOP 190200 AAA
TAFTOP
TAF AMD
KTOP 190241Z 1903/1924 09008KT 6SM BR SCT015
     FM190900 12004KT 3SM BR BKN007
      TEMPO 1910/1913 1SM BR OVC007
     FM191500 17008KT P6SM BKN020
     FM191900 18011KT P6SM SCT050=

USA.gov is the U.S. government's official web portal to all federal, state and local government web resources and services.